sim
Sign-in with your pilot id or email,
or register
Callsign
Passwort

Schedule Details

Flight Number: OEO4013
Departure: Berlin Tegel Airport (EDDT) at 11:05
Arrival: Munich Airport (EDDM) at 12:20

Weather Information
Getting current METAR information for EDDT 201950Z 06005KT 030V090 CAVOK 16/06 Q1019 NOSIG
Getting current METAR information for EDDM 201950Z 29001KT CAVOK 11/10 Q1016 NOSIG

Schedule Frequency

Route Map